Terminal Aerodrome Forecast
Issued by NWS Atlanta, GA

Home | Current Version | Previous Version | Text Only | Print | Product List | Glossary On
Versions: 1 2 3 4 5 6 7 8 9 10 11 12 13 14 15 16 17 18 19 20 21 22 23
380
FTUS42 KFFC 061403 AAA
TAFMCN
TAF AMD
KMCN 061403Z 0614/0712 10007KT 3SM BR OVC004
      TEMPO 0614/0615 VRB10G18KT 1SM SHRA BR OVC005
     FM061600 15010G18KT 3SM -RA BKN010
     FM061800 25013G20KT P6SM BKN025
     FM062200 29008KT P6SM SCT040
     FM070300 30004KT P6SM FEW250=

USA.gov is the U.S. government's official web portal to all federal, state and local government web resources and services.